Time;durP1;ratioP1;P1;durP2;ratioP2;P2;SDS_P1;SDS_P2;PMS_P1;PMS_P2;Temp;Humidity;BMP_temperature;BMP_pressure;BME280_temperature;BME280_humidity;BME280_pressure;Samples;Min_cycle;Max_cycle;Signal;HPM_P1;HPM_P2
2024/04/12 00:01:42;;;;;;;5.07;1.40;;;16.80;99.90;;;;;;5451737;26;20587;-76
2024/04/12 00:04:09;;;;;;;3.37;1.30;;;16.90;99.90;;;;;;5445159;26;21007;-76
2024/04/12 00:06:37;;;;;;;2.60;0.93;;;16.90;99.90;;;;;;5446530;26;20543;-77
2024/04/12 00:09:24;;;;;;;2.07;0.90;;;16.90;99.90;;;;;;5435311;26;20528;-77
2024/04/12 00:11:54;;;;;;;1.97;0.97;;;16.90;99.90;;;;;;5418897;26;21483;-77
2024/04/12 00:14:22;;;;;;;2.23;0.97;;;16.90;99.90;;;;;;5447473;26;20612;-77
2024/04/12 00:16:56;;;;;;;2.10;0.87;;;16.90;99.90;;;;;;5446950;26;20555;-77
2024/04/12 00:19:23;;;;;;;4.20;1.80;;;16.90;99.90;;;;;;5440701;26;20549;-77
2024/04/12 00:21:55;;;;;;;2.57;1.10;;;16.90;99.90;;;;;;5438429;26;20612;-77
2024/04/12 00:24:26;;;;;;;2.50;0.93;;;16.90;99.90;;;;;;5426201;26;20632;-76
2024/04/12 00:26:56;;;;;;;2.43;0.90;;;16.90;99.90;;;;;;5449061;26;20641;-77
2024/04/12 00:29:30;;;;;;;3.80;1.33;;;16.90;99.90;;;;;;5448675;26;20516;-77
2024/04/12 00:32:13;;;;;;;2.77;0.90;;;16.90;99.90;;;;;;5448305;26;20637;-77
2024/04/12 00:34:47;;;;;;;2.10;0.90;;;16.90;99.90;;;;;;5448404;26;20555;-76
2024/04/12 00:37:15;;;;;;;3.27;1.10;;;16.90;99.90;;;;;;5444995;26;21546;-76
2024/04/12 00:39:48;;;;;;;6.73;1.50;;;17.00;99.90;;;;;;5422120;26;20541;-76
2024/04/12 00:42:25;;;;;;;3.63;0.80;;;17.00;99.90;;;;;;5435875;26;20539;-77
2024/04/12 00:44:54;;;;;;;3.20;0.97;;;17.00;99.90;;;;;;5449594;26;20570;-76
2024/04/12 00:47:21;;;;;;;3.53;1.30;;;17.00;99.90;;;;;;5465449;26;20528;-77
2024/04/12 00:49:51;;;;;;;4.67;1.10;;;17.00;99.90;;;;;;5451971;26;20520;-76
2024/04/12 00:52:28;;;;;;;2.57;1.00;;;17.00;99.90;;;;;;5437021;26;20516;-76
2024/04/12 00:55:03;;;;;;;2.30;1.10;;;17.00;99.90;;;;;;5451619;26;20511;-76
2024/04/12 00:57:36;;;;;;;4.10;1.20;;;17.00;99.90;;;;;;5452062;26;20574;-76
2024/04/12 01:00:08;;;;;;;3.20;1.20;;;17.00;99.90;;;;;;5451565;26;20894;-76
2024/04/12 01:02:39;;;;;;;2.67;1.00;;;17.00;99.90;;;;;;5450024;26;20946;-76
2024/04/12 01:05:11;;;;;;;3.87;1.20;;;17.00;99.90;;;;;;5445865;26;20604;-77
2024/04/12 01:07:37;;;;;;;3.67;1.20;;;17.00;99.90;;;;;;5454143;26;20528;-76
2024/04/12 01:10:11;;;;;;;3.60;1.20;;;17.00;99.90;;;;;;5424043;26;20583;-76
2024/04/12 01:12:38;;;;;;;2.87;1.70;;;17.00;99.90;;;;;;5449425;26;20613;-76
2024/04/12 01:15:07;;;;;;;2.13;1.27;;;17.00;99.90;;;;;;5445088;26;20572;-76
2024/04/12 01:17:37;;;;;;;4.30;1.37;;;17.10;99.90;;;;;;5449880;26;20551;-76
2024/04/12 01:20:05;;;;;;;3.37;1.40;;;17.10;99.90;;;;;;5444866;26;20658;-76
2024/04/12 01:22:31;;;;;;;3.40;1.33;;;17.10;99.90;;;;;;5451965;26;20575;-77
2024/04/12 01:24:57;;;;;;;3.30;1.20;;;17.10;99.90;;;;;;5414078;26;20556;-76
2024/04/12 01:27:24;;;;;;;4.73;1.10;;;17.10;99.90;;;;;;5437342;26;21164;-76
2024/04/12 01:29:56;;;;;;;3.80;1.13;;;17.10;99.90;;;;;;5451792;26;20528;-76
2024/04/12 01:32:24;;;;;;;4.50;1.43;;;17.10;99.90;;;;;;5449809;26;21248;-77
2024/04/12 01:34:50;;;;;;;4.63;1.40;;;17.10;99.90;;;;;;5450759;26;20587;-77
2024/04/12 01:37:20;;;;;;;2.13;1.00;;;17.10;99.90;;;;;;5454218;26;20572;-77
2024/04/12 01:39:47;;;;;;;2.93;1.00;;;17.10;99.90;;;;;;5453961;26;20658;-77
2024/04/12 01:42:16;;;;;;;2.30;0.90;;;17.10;99.90;;;;;;5460285;26;20605;-78
2024/04/12 01:45:13;;;;;;;3.93;1.00;;;17.20;99.90;;;;;;5457520;26;20559;-77
2024/04/12 01:47:34;;;;;;;2.23;0.80;;;17.20;99.90;;;;;;5446007;26;20537;-77
2024/04/12 01:50:02;;;;;;;2.33;0.80;;;17.20;99.90;;;;;;5462228;26;20595;-77
2024/04/12 01:52:29;;;;;;;5.43;1.10;;;17.20;99.90;;;;;;5446359;26;20525;-77
2024/04/12 01:55:05;;;;;;;3.60;1.10;;;17.20;99.90;;;;;;5451030;26;21023;-77
2024/04/12 01:57:32;;;;;;;2.93;1.40;;;17.20;99.90;;;;;;5478686;26;20606;-77
2024/04/12 02:00:02;;;;;;;2.10;0.70;;;17.20;99.90;;;;;;5446803;26;20512;-76
2024/04/12 02:02:30;;;;;;;7.93;1.07;;;17.20;99.90;;;;;;5437852;26;20599;-77
2024/04/12 02:04:56;;;;;;;2.43;0.90;;;17.20;99.90;;;;;;5482272;26;20940;-77
2024/04/12 02:07:27;;;;;;;2.70;0.80;;;17.20;99.90;;;;;;5431355;26;20761;-77
2024/04/12 02:10:07;;;;;;;3.33;0.93;;;17.20;99.90;;;;;;5445412;26;20902;-77
2024/04/12 02:12:36;;;;;;;2.60;1.30;;;17.30;99.90;;;;;;5450626;26;20580;-77
2024/04/12 02:15:19;;;;;;;3.70;0.80;;;17.20;99.90;;;;;;5451128;26;20585;-74
2024/04/12 02:17:58;;;;;;;2.13;0.73;;;17.20;99.90;;;;;;5438148;26;20593;-74
2024/04/12 02:20:33;;;;;;;2.10;0.80;;;17.30;99.90;;;;;;5479303;26;20584;-74
2024/04/12 02:23:05;;;;;;;2.67;1.10;;;17.30;99.90;;;;;;5456368;26;20619;-74
2024/04/12 02:25:39;;;;;;;2.43;0.70;;;17.30;99.90;;;;;;5447010;26;20527;-80
2024/04/12 02:28:11;;;;;;;2.67;0.83;;;17.30;99.90;;;;;;5479483;26;20514;-80
2024/04/12 02:31:00;;;;;;;2.30;0.70;;;17.30;99.90;;;;;;5439146;26;20527;-80
2024/04/12 02:33:32;;;;;;;2.40;0.90;;;17.30;99.90;;;;;;5442813;26;20774;-80
2024/04/12 02:36:03;;;;;;;2.47;0.83;;;17.30;99.90;;;;;;5443302;26;20544;-79
2024/04/12 02:38:30;;;;;;;1.73;0.80;;;17.30;99.90;;;;;;5436880;26;20531;-79
2024/04/12 02:40:59;;;;;;;1.60;0.80;;;17.30;99.90;;;;;;5479482;26;21147;-79
2024/04/12 02:43:25;;;;;;;1.90;0.73;;;17.30;99.90;;;;;;5479448;26;20575;-80
2024/04/12 02:45:53;;;;;;;1.80;0.80;;;17.40;99.90;;;;;;5417946;26;20532;-80
2024/04/12 02:48:22;;;;;;;1.90;0.90;;;17.40;99.90;;;;;;5449024;26;20603;-79
2024/04/12 02:50:56;;;;;;;2.47;0.80;;;17.30;99.90;;;;;;5450748;26;20579;-79
2024/04/12 02:53:26;;;;;;;1.57;0.80;;;17.30;99.90;;;;;;5441668;26;20567;-80
2024/04/12 02:56:03;;;;;;;3.63;0.80;;;17.30;99.90;;;;;;5448731;26;20597;-80
2024/04/12 02:58:44;;;;;;;2.60;0.90;;;17.30;99.90;;;;;;5479965;26;20926;-80
2024/04/12 03:01:25;;;;;;;3.20;0.93;;;17.40;99.90;;;;;;5479752;26;20591;-80
2024/04/12 03:03:51;;;;;;;2.17;0.80;;;17.30;99.90;;;;;;5477341;26;20571;-79
2024/04/12 03:06:22;;;;;;;1.90;0.70;;;17.40;99.90;;;;;;5479355;26;20579;-80
2024/04/12 03:08:50;;;;;;;1.53;0.73;;;17.30;99.90;;;;;;5437537;26;20593;-79
2024/04/12 03:11:25;;;;;;;2.33;0.73;;;17.40;99.90;;;;;;5478721;26;20524;-80
2024/04/12 03:13:58;;;;;;;2.77;0.77;;;17.40;99.90;;;;;;5478509;26;20623;-79
2024/04/12 03:16:25;;;;;;;2.53;0.80;;;17.30;99.90;;;;;;5448647;26;20593;-79
2024/04/12 03:18:52;;;;;;;1.90;0.80;;;17.30;99.90;;;;;;5433693;26;20519;-79
2024/04/12 03:21:26;;;;;;;1.70;0.90;;;17.30;99.90;;;;;;5444830;26;20937;-79
2024/04/12 03:23:55;;;;;;;2.20;0.90;;;17.30;99.90;;;;;;5477927;26;20571;-79
2024/04/12 03:26:22;;;;;;;1.70;0.70;;;17.30;99.90;;;;;;5416270;26;20564;-79
2024/04/12 03:28:53;;;;;;;6.20;0.90;;;17.30;99.90;;;;;;5476626;26;20917;-79
2024/04/12 03:31:20;;;;;;;2.33;0.83;;;17.30;99.90;;;;;;5446017;26;20898;-78
2024/04/12 03:33:46;;;;;;;6.20;0.83;;;17.30;99.90;;;;;;5387553;26;20645;-78
2024/04/12 03:39:28;;;;;;;3.33;0.90;;;17.30;99.90;;;;;;5421269;26;20537;-78
2024/04/12 03:41:47;;;;;;;2.37;0.83;;;17.40;99.90;;;;;;5446124;26;20524;-79
2024/04/12 03:44:14;;;;;;;3.00;0.80;;;17.40;99.90;;;;;;5446830;26;20693;-79
2024/04/12 03:46:50;;;;;;;4.20;0.80;;;17.40;99.90;;;;;;5478380;26;20532;-79
2024/04/12 03:49:20;;;;;;;2.47;0.87;;;17.40;99.90;;;;;;5432886;26;20548;-78
2024/04/12 03:51:56;;;;;;;2.57;0.80;;;17.40;99.90;;;;;;5382476;26;20549;-78
2024/04/12 03:54:24;;;;;;;1.47;0.70;;;17.40;99.90;;;;;;5415072;26;20933;-78
2024/04/12 03:56:51;;;;;;;2.20;0.90;;;17.40;99.90;;;;;;5478482;26;20520;-78
2024/04/12 03:59:23;;;;;;;2.17;1.07;;;17.50;99.90;;;;;;5434207;26;21101;-79
2024/04/12 04:01:53;;;;;;;2.10;0.93;;;17.50;99.90;;;;;;5448115;26;20636;-80
2024/04/12 04:04:20;;;;;;;3.30;1.10;;;17.50;99.90;;;;;;5477303;26;20669;-80
2024/04/12 04:06:54;;;;;;;2.07;0.70;;;17.50;99.90;;;;;;5447507;26;21096;-80
2024/04/12 04:09:27;;;;;;;1.90;0.70;;;17.50;99.90;;;;;;5446782;26;20559;-80
2024/04/12 04:11:54;;;;;;;5.23;0.90;;;17.50;99.90;;;;;;5477622;26;20919;-80
2024/04/12 04:14:25;;;;;;;1.80;1.00;;;17.50;99.90;;;;;;5449977;26;20571;-80
2024/04/12 04:16:55;;;;;;;1.90;0.80;;;17.50;99.90;;;;;;5452762;26;20528;-80
2024/04/12 04:19:35;;;;;;;5.37;1.00;;;17.50;99.90;;;;;;5480703;26;20554;-78
2024/04/12 04:24:59;;;;;;;2.63;0.90;;;17.50;99.90;;;;;;5452129;26;21190;-79
2024/04/12 04:27:26;;;;;;;2.23;0.77;;;17.50;99.90;;;;;;5421028;26;20547;-78
2024/04/12 04:29:56;;;;;;;3.13;1.10;;;17.50;99.90;;;;;;5479293;26;20568;-78
2024/04/12 04:32:23;;;;;;;2.63;0.80;;;17.50;99.90;;;;;;5481409;26;20945;-78
2024/04/12 04:35:05;;;;;;;6.10;3.33;;;17.50;99.90;;;;;;5480930;26;20974;-78
2024/04/12 04:37:37;;;;;;;2.63;1.03;;;17.50;99.90;;;;;;5480671;26;20531;-79
2024/04/12 04:40:16;;;;;;;2.53;1.13;;;17.50;99.90;;;;;;5450498;26;20606;-78
2024/04/12 04:42:45;;;;;;;1.70;0.90;;;17.50;99.90;;;;;;5472393;26;21173;-78
2024/04/12 04:45:17;;;;;;;2.80;0.90;;;17.50;99.90;;;;;;5413861;26;20588;-78
2024/04/12 04:47:45;;;;;;;1.80;1.00;;;17.50;99.90;;;;;;5470155;26;20580;-78
2024/04/12 04:50:15;;;;;;;1.60;0.80;;;17.40;99.90;;;;;;5482591;26;20539;-78
2024/04/12 04:52:41;;;;;;;2.20;1.40;;;17.40;99.90;;;;;;5448364;26;20547;-76
2024/04/12 04:55:11;;;;;;;1.70;0.90;;;17.40;99.90;;;;;;5426446;26;20612;-76
2024/04/12 04:57:43;;;;;;;1.80;1.10;;;17.40;99.90;;;;;;5429004;26;20547;-77
2024/04/12 05:00:24;;;;;;;2.07;1.00;;;17.40;99.90;;;;;;5436633;26;20583;-77
2024/04/12 05:02:50;;;;;;;3.20;0.90;;;17.40;99.90;;;;;;5389895;26;20649;-77
2024/04/12 05:05:23;;;;;;;2.43;0.90;;;17.40;99.90;;;;;;5456736;26;20548;-77
2024/04/12 05:07:56;;;;;;;2.40;1.07;;;17.40;99.90;;;;;;5432400;26;20523;-76
2024/04/12 05:10:24;;;;;;;2.50;1.10;;;17.40;99.90;;;;;;5429133;26;20549;-76
2024/04/12 05:12:50;;;;;;;4.07;1.13;;;17.40;99.90;;;;;;5448022;26;20566;-77
2024/04/12 05:18:03;;;;;;;2.00;0.97;;;17.40;99.90;;;;;;5451658;26;20576;-77
2024/04/12 05:20:50;;;;;;;2.23;1.00;;;17.40;99.90;;;;;;5449191;26;20612;-76
2024/04/12 05:23:17;;;;;;;3.70;0.90;;;17.40;99.90;;;;;;5444767;26;20588;-77
2024/04/12 05:25:46;;;;;;;2.53;1.00;;;17.40;99.90;;;;;;5441683;26;21142;-77
2024/04/12 05:28:12;;;;;;;2.00;0.90;;;17.40;99.90;;;;;;5448231;26;20580;-77
2024/04/12 05:30:42;;;;;;;1.60;1.00;;;17.40;99.90;;;;;;5444634;26;20643;-76
2024/04/12 05:33:16;;;;;;;2.53;1.20;;;17.40;99.90;;;;;;5442926;26;20618;-75
2024/04/12 05:35:42;;;;;;;2.00;1.10;;;17.40;99.90;;;;;;5449030;26;20531;-76
2024/04/12 05:38:09;;;;;;;2.20;1.17;;;17.40;99.90;;;;;;5450782;26;20548;-76
2024/04/12 05:40:51;;;;;;;5.00;1.47;;;17.40;99.90;;;;;;5448930;26;20614;-76
2024/04/12 05:43:21;;;;;;;2.57;1.27;;;17.40;99.90;;;;;;5451072;26;20570;-76
2024/04/12 05:45:53;;;;;;;2.73;1.70;;;17.40;99.90;;;;;;5446439;26;21207;-76
2024/04/12 05:48:21;;;;;;;2.10;1.20;;;17.40;99.90;;;;;;5451189;26;20974;-76
2024/04/12 05:50:53;;;;;;;3.60;1.70;;;17.40;99.90;;;;;;5449079;26;20649;-77
2024/04/12 05:53:30;;;;;;;2.90;2.00;;;17.40;99.90;;;;;;5451088;26;21349;-76
2024/04/12 05:58:42;;;;;;;3.17;1.40;;;17.40;99.90;;;;;;5440883;26;20553;-76
2024/04/12 06:01:08;;;;;;;2.80;1.50;;;17.40;99.90;;;;;;5474599;26;20622;-76
2024/04/12 06:03:48;;;;;;;2.37;1.30;;;17.40;99.90;;;;;;5446400;26;20588;-76
2024/04/12 06:06:15;;;;;;;2.67;1.43;;;17.40;99.90;;;;;;5448644;26;21171;-76
2024/04/12 06:08:42;;;;;;;5.80;1.53;;;17.50;99.90;;;;;;5444059;26;20525;-76
2024/04/12 06:11:09;;;;;;;3.10;1.60;;;17.50;99.90;;;;;;5433123;26;20580;-75
2024/04/12 06:13:38;;;;;;;2.97;1.50;;;17.50;99.90;;;;;;5448817;26;20615;-75
2024/04/12 06:16:04;;;;;;;2.90;1.90;;;17.50;99.90;;;;;;5434680;26;20588;-75
2024/04/12 06:18:31;;;;;;;2.50;1.73;;;17.50;99.90;;;;;;5448596;26;20674;-76
2024/04/12 06:20:57;;;;;;;3.43;1.90;;;17.50;99.90;;;;;;5448514;26;20619;-76
2024/04/12 06:23:23;;;;;;;4.27;2.03;;;17.50;99.90;;;;;;5448946;26;20616;-76
2024/04/12 06:25:50;;;;;;;3.00;1.93;;;17.50;99.90;;;;;;5429826;26;21169;-76
2024/04/12 06:28:19;;;;;;;3.87;2.10;;;17.50;99.90;;;;;;5443206;26;21210;-77
2024/04/12 06:30:52;;;;;;;4.27;1.90;;;17.50;99.90;;;;;;5479527;26;20642;-77
2024/04/12 06:33:22;;;;;;;3.80;1.80;;;17.50;99.90;;;;;;5451193;26;20610;-76
2024/04/12 06:35:52;;;;;;;2.50;1.80;;;17.60;99.90;;;;;;5418422;26;20600;-75
2024/04/12 06:38:22;;;;;;;4.97;1.90;;;17.50;99.90;;;;;;5444423;26;20543;-76
2024/04/12 06:41:14;;;;;;;6.87;2.60;;;17.60;99.90;;;;;;5433480;26;20525;-75
2024/04/12 06:43:45;;;;;;;3.47;2.47;;;17.60;99.90;;;;;;5433269;26;20659;-75
2024/04/12 06:46:14;;;;;;;6.07;2.73;;;17.60;99.90;;;;;;5441044;26;20589;-75
2024/04/12 06:48:41;;;;;;;4.93;3.23;;;17.50;99.90;;;;;;5423630;26;20930;-76
2024/04/12 06:51:12;;;;;;;5.83;2.60;;;17.50;99.90;;;;;;5425054;26;20879;-76
2024/04/12 06:53:45;;;;;;;6.10;3.63;;;17.50;99.90;;;;;;5449736;26;20627;-75
2024/04/12 06:56:16;;;;;;;8.03;3.20;;;17.50;99.90;;;;;;5450172;26;20633;-76
2024/04/12 06:58:46;;;;;;;5.97;3.20;;;17.40;99.90;;;;;;5450404;26;20535;-76
2024/04/12 07:01:12;;;;;;;5.13;3.17;;;17.40;99.90;;;;;;5429603;26;20596;-76
2024/04/12 07:03:45;;;;;;;3.70;2.60;;;17.40;99.90;;;;;;5435294;26;20590;-75
2024/04/12 07:06:16;;;;;;;5.90;2.60;;;17.40;99.90;;;;;;5448216;26;20637;-76
2024/04/12 07:08:51;;;;;;;4.97;3.37;;;17.40;99.90;;;;;;5448445;26;20547;-75
2024/04/12 07:11:18;;;;;;;4.03;1.90;;;17.40;99.90;;;;;;5472360;26;20871;-75
2024/04/12 07:13:49;;;;;;;4.53;2.97;;;17.30;99.90;;;;;;5443579;26;20561;-75
2024/04/12 07:16:20;;;;;;;4.90;1.60;;;17.40;99.90;;;;;;5450121;26;21159;-75
2024/04/12 07:18:50;;;;;;;2.73;1.57;;;17.40;99.90;;;;;;5445976;26;20608;-75
2024/04/12 07:21:16;;;;;;;2.40;1.40;;;17.40;99.90;;;;;;5445774;26;20555;-75
2024/04/12 07:23:46;;;;;;;3.63;1.73;;;17.40;99.90;;;;;;5447036;26;20567;-75
2024/04/12 07:26:24;;;;;;;2.87;1.43;;;17.40;99.90;;;;;;5440735;26;20976;-76
2024/04/12 07:29:01;;;;;;;3.47;1.63;;;17.40;99.90;;;;;;5450249;26;20528;-74
2024/04/12 07:31:30;;;;;;;1.93;1.20;;;17.40;99.90;;;;;;5446374;26;20583;-75
2024/04/12 07:34:02;;;;;;;3.23;1.50;;;17.40;99.90;;;;;;5449166;26;20571;-75
2024/04/12 07:36:30;;;;;;;2.33;1.20;;;17.40;99.90;;;;;;5447530;26;20587;-77
2024/04/12 07:39:15;;;;;;;2.20;1.30;;;17.50;99.90;;;;;;5449220;26;20610;-77
2024/04/12 07:41:48;;;;;;;2.37;1.07;;;17.50;99.90;;;;;;5448666;26;20531;-75
2024/04/12 07:44:15;;;;;;;2.33;1.20;;;17.60;99.90;;;;;;5421048;26;20630;-75
2024/04/12 07:46:52;;;;;;;3.07;1.37;;;17.60;99.90;;;;;;5460363;26;20610;-74
2024/04/12 07:49:19;;;;;;;2.40;1.00;;;17.70;99.90;;;;;;5455883;26;20614;-76
2024/04/12 07:51:47;;;;;;;3.63;1.13;;;17.80;99.90;;;;;;5459970;26;20551;-74
2024/04/12 07:54:13;;;;;;;2.07;0.90;;;17.90;99.90;;;;;;5458058;26;20583;-75
2024/04/12 07:57:07;;;;;;;3.30;1.17;;;17.90;99.90;;;;;;5450518;26;20554;-76
2024/04/12 07:59:37;;;;;;;4.03;1.30;;;17.90;99.90;;;;;;5449522;26;20673;-75
2024/04/12 08:02:05;;;;;;;1.70;0.97;;;18.00;99.90;;;;;;5453875;26;20571;-75
2024/04/12 08:04:38;;;;;;;2.00;0.90;;;18.10;99.90;;;;;;5453207;26;20567;-75
2024/04/12 08:07:17;;;;;;;3.00;1.30;;;18.20;99.90;;;;;;5453034;26;20603;-75
2024/04/12 08:10:09;;;;;;;4.50;1.80;;;18.30;99.90;;;;;;5451808;26;20595;-76
2024/04/12 08:12:33;;;;;;;2.10;1.20;;;18.40;99.90;;;;;;5452140;26;20584;-75
2024/04/12 08:15:06;;;;;;;2.00;1.10;;;18.50;99.90;;;;;;5450722;26;20587;-76
2024/04/12 08:17:39;;;;;;;3.33;1.50;;;18.60;99.90;;;;;;5452607;26;20555;-75
2024/04/12 08:20:21;;;;;;;5.00;1.00;;;18.80;99.90;;;;;;5450182;26;21095;-76
2024/04/12 08:22:48;;;;;;;3.70;0.80;;;18.90;99.90;;;;;;5452451;26;20531;-75
2024/04/12 08:25:17;;;;;;;4.57;1.60;;;19.00;99.90;;;;;;5450270;26;20587;-75
2024/04/12 08:27:44;;;;;;;4.23;1.30;;;19.10;99.90;;;;;;5452219;26;20579;-76
2024/04/12 08:30:13;;;;;;;2.40;0.90;;;19.30;99.90;;;;;;5451827;26;20872;-76
2024/04/12 08:32:48;;;;;;;2.63;1.27;;;19.50;99.90;;;;;;5452774;26;20583;-76
2024/04/12 08:35:19;;;;;;;2.10;1.23;;;19.60;99.90;;;;;;5452215;26;20595;-76
2024/04/12 08:37:47;;;;;;;2.00;1.13;;;19.80;99.90;;;;;;5446549;26;20536;-75
2024/04/12 08:40:19;;;;;;;2.83;1.20;;;20.00;99.90;;;;;;5448693;26;20555;-76
2024/04/12 08:42:45;;;;;;;3.30;1.20;;;20.10;99.90;;;;;;5450053;26;20603;-76
2024/04/12 08:45:17;;;;;;;5.37;1.90;;;20.20;99.90;;;;;;5471093;26;20627;-75
2024/04/12 08:47:51;;;;;;;4.23;1.70;;;20.30;99.90;;;;;;5445288;26;20601;-75
2024/04/12 08:50:23;;;;;;;2.70;1.33;;;20.40;99.90;;;;;;5449655;26;20595;-76
2024/04/12 08:52:52;;;;;;;4.00;1.37;;;20.50;99.90;;;;;;5450172;26;21072;-76
2024/04/12 08:55:28;;;;;;;4.97;1.50;;;20.60;99.90;;;;;;5450018;26;20543;-76
2024/04/12 08:57:57;;;;;;;2.50;1.10;;;20.70;99.90;;;;;;5446730;26;21103;-76
2024/04/12 09:00:34;;;;;;;5.10;1.57;;;20.80;99.90;;;;;;5419406;26;20555;-76
2024/04/12 09:03:10;;;;;;;4.43;1.40;;;20.80;99.90;;;;;;5467862;26;20566;-75
2024/04/12 09:05:42;;;;;;;2.50;1.30;;;20.90;99.90;;;;;;5448107;26;21618;-76
2024/04/12 09:08:17;;;;;;;2.90;2.00;;;21.00;99.90;;;;;;5447366;26;20591;-76
2024/04/12 09:10:43;;;;;;;3.70;1.50;;;21.10;99.90;;;;;;5448042;26;20612;-75
2024/04/12 09:13:15;;;;;;;2.90;1.53;;;21.20;99.90;;;;;;5448386;26;20559;-76
2024/04/12 09:15:45;;;;;;;2.30;1.20;;;21.30;99.90;;;;;;5447545;26;20516;-76
2024/04/12 09:18:18;;;;;;;3.17;1.40;;;21.30;99.90;;;;;;5448908;26;20572;-75
2024/04/12 09:20:45;;;;;;;2.63;1.17;;;21.40;99.90;;;;;;5449984;26;20551;-76
2024/04/12 09:23:16;;;;;;;3.70;1.30;;;21.50;99.90;;;;;;5449570;26;20562;-75
2024/04/12 09:25:44;;;;;;;3.83;1.93;;;21.50;99.90;;;;;;5451219;26;20520;-75
2024/04/12 09:28:14;;;;;;;2.20;1.47;;;21.60;99.90;;;;;;5450003;26;20610;-75
2024/04/12 09:33:31;;;;;;;2.10;1.20;;;21.70;99.90;;;;;;5447599;26;20559;-76
2024/04/12 09:36:14;;;;;;;4.00;1.30;;;21.70;99.90;;;;;;5477171;26;20531;-76
2024/04/12 09:38:43;;;;;;;2.90;1.40;;;21.70;99.90;;;;;;5474968;26;20985;-76
2024/04/12 09:41:31;;;;;;;2.50;1.50;;;21.80;99.90;;;;;;5416547;26;20596;-76
2024/04/12 09:43:59;;;;;;;4.10;1.30;;;21.90;99.90;;;;;;5449050;26;20656;-76
2024/04/12 09:46:46;;;;;;;3.90;1.10;;;22.00;99.90;;;;;;5478405;26;20532;-76
2024/04/12 10:39:45;;;;;;;2.77;0.90;;;23.80;99.90;;;;;;5449659;26;20857;-76
2024/04/12 10:42:14;;;;;;;3.67;1.30;;;23.90;99.90;;;;;;5450202;26;20891;-76
2024/04/12 10:44:41;;;;;;;4.97;1.27;;;23.90;99.90;;;;;;5446622;26;20652;-76
2024/04/12 10:47:12;;;;;;;2.83;1.30;;;24.00;99.90;;;;;;5479171;26;20539;-76
2024/04/12 10:49:43;;;;;;;3.07;1.10;;;24.00;99.90;;;;;;5478258;26;20535;-76
2024/04/12 10:52:14;;;;;;;3.43;0.90;;;24.00;99.90;;;;;;5426784;26;20595;-76
2024/04/12 10:54:53;;;;;;;2.57;0.90;;;24.00;99.90;;;;;;5388492;26;20913;-76
2024/04/12 10:57:20;;;;;;;2.17;1.00;;;24.00;99.90;;;;;;5448362;26;20583;-76
2024/04/12 10:59:51;;;;;;;4.50;1.10;;;24.10;99.90;;;;;;5418146;26;20998;-76
2024/04/12 11:02:17;;;;;;;3.03;1.10;;;24.00;99.90;;;;;;5448089;26;20607;-76
2024/04/12 11:07:32;;;;;;;2.50;0.97;;;24.00;99.90;;;;;;5448595;26;20515;-76
2024/04/12 11:10:00;;;;;;;4.43;0.97;;;24.10;99.90;;;;;;5448055;26;21080;-76
2024/04/12 11:13:06;;;;;;;2.73;1.13;;;24.10;99.90;;;;;;5478353;26;20528;-76
2024/04/12 11:31:55;;;;;;;2.00;0.80;;;24.30;99.90;;;;;;5449133;26;20568;-73
2024/04/12 11:34:29;;;;;;;3.07;1.03;;;24.20;99.90;;;;;;5449418;26;20619;-72
2024/04/12 11:36:55;;;;;;;2.27;0.80;;;24.20;99.90;;;;;;5443959;26;20551;-73
2024/04/12 11:39:26;;;;;;;5.17;1.37;;;24.20;99.90;;;;;;5449042;26;20615;-72
2024/04/12 11:41:55;;;;;;;2.20;1.30;;;24.10;99.90;;;;;;5446154;26;20612;-73
2024/04/12 11:44:22;;;;;;;2.47;1.20;;;24.00;99.90;;;;;;5447270;26;20646;-73
2024/04/12 11:46:49;;;;;;;1.83;0.70;;;24.00;99.90;;;;;;5445581;26;20547;-73
2024/04/12 11:49:25;;;;;;;4.07;2.03;;;24.00;99.90;;;;;;5449261;26;20536;-73
2024/04/12 11:51:58;;;;;;;2.27;1.13;;;24.00;99.90;;;;;;5447933;26;20958;-74
2024/04/12 11:54:28;;;;;;;5.57;2.47;;;23.90;99.90;;;;;;5448872;26;20619;-73
2024/04/12 11:56:59;;;;;;;4.77;2.70;;;23.90;99.90;;;;;;5443477;26;21233;-72
2024/04/12 11:59:29;;;;;;;2.90;1.33;;;23.90;99.90;;;;;;5443028;26;20635;-74
2024/04/12 12:02:01;;;;;;;3.00;1.10;;;24.00;99.90;;;;;;5448741;26;20540;-74
2024/04/12 12:04:31;;;;;;;2.63;0.80;;;24.00;99.90;;;;;;5448521;26;20623;-74
2024/04/12 12:06:59;;;;;;;2.33;1.20;;;24.10;99.90;;;;;;5448582;26;20591;-74
2024/04/12 12:09:31;;;;;;;3.80;1.70;;;24.10;99.90;;;;;;5446529;26;20600;-74
2024/04/12 12:12:00;;;;;;;3.10;1.20;;;24.20;99.90;;;;;;5446828;26;20550;-74
2024/04/12 12:14:27;;;;;;;2.10;0.90;;;24.20;99.90;;;;;;5440648;26;20628;-73
2024/04/12 12:16:57;;;;;;;2.97;0.93;;;24.10;99.90;;;;;;5385682;26;20547;-74
2024/04/12 12:19:23;;;;;;;2.47;1.10;;;24.10;99.90;;;;;;5436215;26;20572;-74
2024/04/12 12:21:49;;;;;;;3.47;0.90;;;24.10;99.90;;;;;;5421832;26;21106;-74
2024/04/12 12:24:16;;;;;;;3.97;0.80;;;24.00;99.90;;;;;;5446135;26;20644;-73
2024/04/12 12:26:43;;;;;;;1.70;0.70;;;23.90;99.90;;;;;;5433512;26;20517;-74
2024/04/12 12:29:09;;;;;;;1.80;0.80;;;23.80;99.90;;;;;;5440836;26;20553;-73
2024/04/12 12:31:36;;;;;;;6.50;0.80;;;23.70;99.90;;;;;;5442142;26;20595;-73
2024/04/12 12:34:04;;;;;;;4.13;0.70;;;23.60;99.90;;;;;;5440709;26;20633;-73
2024/04/12 12:36:33;;;;;;;2.03;0.70;;;23.60;99.90;;;;;;5441292;26;20551;-74
2024/04/12 12:39:00;;;;;;;1.80;0.70;;;23.60;99.90;;;;;;5451762;26;20531;-74
2024/04/12 12:41:27;;;;;;;1.50;0.70;;;23.60;99.90;;;;;;5480480;26;20861;-74
2024/04/12 12:43:53;;;;;;;2.10;0.70;;;23.70;99.90;;;;;;5451309;26;20579;-74
2024/04/12 12:46:24;;;;;;;3.93;0.73;;;23.70;99.90;;;;;;5451672;26;20876;-73
2024/04/12 12:48:53;;;;;;;2.30;0.73;;;23.80;99.90;;;;;;5449757;26;20649;-74
2024/04/12 12:51:26;;;;;;;2.90;0.70;;;23.90;99.90;;;;;;5453397;26;20524;-73
2024/04/12 12:54:01;;;;;;;2.17;0.60;;;24.10;99.90;;;;;;5453012;26;20621;-74
2024/04/12 12:56:31;;;;;;;2.70;0.80;;;24.20;99.90;;;;;;5460439;26;20519;-73
2024/04/12 12:59:01;;;;;;;1.43;0.50;;;24.40;99.90;;;;;;5450864;26;20526;-74
2024/04/12 13:01:34;;;;;;;4.17;0.80;;;24.50;99.90;;;;;;5450469;26;20583;-74
2024/04/12 13:04:11;;;;;;;2.77;0.70;;;24.70;99.90;;;;;;5394990;26;20625;-73
2024/04/12 13:06:37;;;;;;;3.93;1.40;;;24.90;99.90;;;;;;5455633;26;20530;-74
2024/04/12 13:09:06;;;;;;;1.90;0.67;;;25.00;99.90;;;;;;5444062;26;20599;-74
2024/04/12 13:11:32;;;;;;;1.80;0.70;;;25.20;99.90;;;;;;5450960;26;20621;-74
2024/04/12 13:14:09;;;;;;;3.10;0.87;;;25.40;99.90;;;;;;5450729;26;20567;-74
2024/04/12 13:16:41;;;;;;;1.97;0.70;;;25.60;99.90;;;;;;5390079;26;20555;-74
2024/04/12 13:19:15;;;;;;;3.07;0.73;;;25.70;99.90;;;;;;5478320;26;20539;-74
2024/04/12 13:21:46;;;;;;;2.97;0.70;;;25.90;99.90;;;;;;5437773;26;20626;-74
2024/04/12 13:24:14;;;;;;;3.50;1.13;;;26.00;99.90;;;;;;5449058;26;20627;-74
2024/04/12 13:26:50;;;;;;;2.00;0.70;;;26.10;99.90;;;;;;5419697;26;20583;-74
2024/04/12 13:29:21;;;;;;;2.63;0.73;;;26.20;99.90;;;;;;5419767;26;20551;-73
2024/04/12 13:31:50;;;;;;;2.03;0.80;;;26.20;99.90;;;;;;5448814;26;20634;-73
2024/04/12 13:34:18;;;;;;;2.27;0.60;;;26.20;99.90;;;;;;5437419;26;20618;-73
2024/04/12 13:36:47;;;;;;;2.50;0.77;;;26.20;99.90;;;;;;5449377;26;20524;-73
2024/04/12 13:39:14;;;;;;;1.60;0.60;;;26.10;99.90;;;;;;5449191;26;20559;-73
2024/04/12 13:41:44;;;;;;;3.27;0.90;;;26.10;99.90;;;;;;5448716;26;20539;-73
2024/04/12 13:50:46;;;;;;;2.40;0.83;;;26.10;99.90;;;;;;5450861;26;20681;-73
2024/04/12 13:52:44;;;;;;;2.80;0.73;;;26.10;99.90;;;;;;5451800;26;20642;-74
2024/04/12 13:55:11;;;;;;;3.30;0.90;;;26.00;99.90;;;;;;5452065;26;20603;-73
2024/04/12 13:57:41;;;;;;;1.67;0.70;;;26.00;99.90;;;;;;5451977;26;20587;-73
2024/04/12 14:00:10;;;;;;;2.27;0.80;;;26.00;99.90;;;;;;5451422;26;20595;-74
2024/04/12 14:02:38;;;;;;;2.23;0.80;;;26.00;99.90;;;;;;5436626;26;20535;-74
2024/04/12 14:05:04;;;;;;;3.67;0.77;;;25.90;99.90;;;;;;5451270;26;20611;-74
2024/04/12 14:07:33;;;;;;;3.42;1.40;;;25.90;99.90;;;;;;5457487;26;20529;-74
2024/04/12 14:10:06;;;;;;;3.90;1.40;;;25.90;99.90;;;;;;5465369;26;20359;-75
2024/04/12 14:12:32;;;;;;;2.23;0.90;;;25.90;99.90;;;;;;5446399;26;20520;-74
2024/04/12 14:14:58;;;;;;;3.57;0.80;;;25.90;99.90;;;;;;5447743;26;20964;-74
2024/04/12 14:17:25;;;;;;;3.03;0.90;;;25.90;99.90;;;;;;5447884;26;20592;-74
2024/04/12 14:19:51;;;;;;;1.63;0.70;;;25.90;99.90;;;;;;5408052;26;20559;-75
2024/04/12 14:22:18;;;;;;;2.37;0.70;;;25.90;99.90;;;;;;5424118;26;20994;-75
2024/04/12 14:25:01;;;;;;;1.77;0.70;;;25.80;99.90;;;;;;5444628;26;20571;-75
2024/04/12 14:27:27;;;;;;;3.00;0.80;;;25.70;99.90;;;;;;5409465;26;21171;-75
2024/04/12 14:29:53;;;;;;;1.40;0.60;;;25.70;99.90;;;;;;5452990;26;20608;-74
2024/04/12 14:32:22;;;;;;;5.60;1.73;;;25.70;99.90;;;;;;5459559;26;20567;-74
2024/04/12 14:34:51;;;;;;;1.93;0.77;;;25.70;99.90;;;;;;5442247;26;20630;-74
2024/04/12 14:37:21;;;;;;;2.63;1.00;;;25.60;99.90;;;;;;5448701;26;20620;-75